Terminal Aerodrome Forecast
Issued by NWS

Home | Current Version | Previous Version | Text Only | Print | Product List | Glossary Off
Versions: 1 2 3 4 5 6 7 8 9 10 11 12 13 14 15

000
FTUS43 KICT 020520
TAFCNU
TAF
KCNU 020520Z 0206/0306 34009KT P6SM OVC040
     FM020900 35007KT P6SM VCSH SCT015 OVC035
     FM021600 35008KT P6SM OVC040
     FM021900 35008KT P6SM BKN040
     FM030200 35005KT P6SM SCT200=

USA.gov is the U.S. government's official web portal to all federal, state and local government web resources and services.